Time;durP1;ratioP1;P1;durP2;ratioP2;P2;SDS_P1;SDS_P2;PMS_P1;PMS_P2;Temp;Humidity;BMP_temperature;BMP_pressure;BME280_temperature;BME280_humidity;BME280_pressure;Samples;Min_cycle;Max_cycle;Signal;HPM_P1;HPM_P2
2022/03/01 00:02:10;;;;;;;;;;;;;;;;;;5101994;28;19974;-83
2022/03/01 00:04:35;;;;;;;;;;;;;;;;;;5102070;28;19916;-81
2022/03/01 00:07:01;;;;;;;;;;;;;;;;;;5100460;28;19950;-81
2022/03/01 00:09:26;;;;;;;;;;;;;;;;;;5099813;28;20007;-81
2022/03/01 00:11:51;;;;;;;;;;;;;;;;;;5100060;28;19916;-81
2022/03/01 00:14:16;;;;;;;;;;;;;;;;;;5099416;28;19923;-81
2022/03/01 00:16:42;;;;;;;;;;;;;;;;;;5078955;28;19916;-81
2022/03/01 00:19:07;;;;;;;;;;;;;;;;;;5078604;28;20278;-82
2022/03/01 00:21:33;;;;;;;;;;;;;;;;;;5098700;28;19917;-80
2022/03/01 00:23:58;;;;;;;;;;;;;;;;;;5099161;28;19962;-80
2022/03/01 00:26:24;;;;;;;;;;;;;;;;;;5099149;28;20018;-81
2022/03/01 00:28:49;;;;;;;;;;;;;;;;;;5099166;28;19916;-81
2022/03/01 00:31:14;;;;;;;;;;;;;;;;;;5098986;28;19958;-80
2022/03/01 00:33:40;;;;;;;;;;;;;;;;;;5099347;28;19927;-81
2022/03/01 00:36:05;;;;;;;;;;;;;;;;;;5097548;28;19923;-80
2022/03/01 00:38:31;;;;;;;;;;;;;;;;;;5098777;28;19947;-80
2022/03/01 00:40:56;;;;;;;;;;;;;;;;;;5098804;28;19923;-81
2022/03/01 00:43:22;;;;;;;;;;;;;;;;;;5098669;28;19938;-81
2022/03/01 00:45:48;;;;;;;;;;;;;;;;;;5098643;28;19965;-80
2022/03/01 00:48:13;;;;;;;;;;;;;;;;;;5098725;28;19916;-80
2022/03/01 00:50:38;;;;;;;;;;;;;;;;;;5084490;28;20325;-80
2022/03/01 00:53:04;;;;;;;;;;;;;;;;;;5076859;28;20283;-81
2022/03/01 00:55:29;;;;;;;;;;;;;;;;;;5077507;28;19963;-80
2022/03/01 00:57:55;;;;;;;;;;;;;;;;;;5076958;28;19917;-80
2022/03/01 01:00:20;;;;;;;;;;;;;;;;;;5077808;28;19917;-80
2022/03/01 01:02:45;;;;;;;;;;;;;;;;;;5088876;28;19966;-80
2022/03/01 01:05:11;;;;;;;;;;;;;;;;;;5097575;28;19959;-81
2022/03/01 01:07:36;;;;;;;;;;;;;;;;;;5088224;28;19917;-81
2022/03/01 01:10:02;;;;;;;;;;;;;;;;;;5077761;28;19942;-81
2022/03/01 01:12:28;;;;;;;;;;;;;;;;;;5093668;28;19916;-80
2022/03/01 01:14:53;;;;;;;;;;;;;;;;;;5118748;28;19916;-81
2022/03/01 01:17:18;;;;;;;;;;;;;;;;;;5121304;28;19924;-83
2022/03/01 01:19:44;;;;;;;;;;;;;;;;;;5119209;28;19919;-81
2022/03/01 01:24:53;;;;;;;;;;;;;;;;;;5117904;28;19961;-80
2022/03/01 01:27:18;;;;;;;;;;;;;;;;;;5119385;28;19923;-80
2022/03/01 01:29:43;;;;;;;;;;;;;;;;;;5119208;28;19919;-81
2022/03/01 01:32:09;;;;;;;;;;;;;;;;;;5119929;28;19980;-80
2022/03/01 01:34:34;;;;;;;;;;;;;;;;;;5119269;28;19958;-80
2022/03/01 01:36:59;;;;;;;;;;;;;;;;;;5118820;28;19915;-81
2022/03/01 01:39:24;;;;;;;;;;;;;;;;;;5119254;28;20266;-80
2022/03/01 01:41:50;;;;;;;;;;;;;;;;;;5115911;28;19920;-82
2022/03/01 01:44:15;;;;;;;;;;;;;;;;;;5098828;28;19920;-81
2022/03/01 01:46:41;;;;;;;;;;;;;;;;;;5099048;28;20010;-81
2022/03/01 01:49:06;;;;;;;;;;;;;;;;;;5099006;28;19973;-81
2022/03/01 01:51:32;;;;;;;;;;;;;;;;;;5098638;28;19965;-80
2022/03/01 01:53:57;;;;;;;;;;;;;;;;;;5097494;28;19969;-81
2022/03/01 01:56:22;;;;;;;;;;;;;;;;;;5098947;28;19938;-81
2022/03/01 01:58:47;;;;;;;;;;;;;;;;;;5096621;28;20373;-82
2022/03/01 02:01:14;;;;;;;;;;;;;;;;;;5098429;28;19919;-81
2022/03/01 02:03:40;;;;;;;;;;;;;;;;;;5097842;28;20417;-80
2022/03/01 02:06:05;;;;;;;;;;;;;;;;;;5098140;28;19916;-81
2022/03/01 02:08:31;;;;;;;;;;;;;;;;;;5079913;28;19916;-81
2022/03/01 02:10:57;;;;;;;;;;;;;;;;;;5098185;28;19954;-81
2022/03/01 02:13:22;;;;;;;;;;;;;;;;;;5096527;28;19924;-81
2022/03/01 02:15:47;;;;;;;;;;;;;;;;;;5097668;28;19922;-82
2022/03/01 02:18:13;;;;;;;;;;;;;;;;;;5098106;28;19961;-81
2022/03/01 02:20:39;;;;;;;;;;;;;;;;;;5096094;28;20320;-81
2022/03/01 02:23:06;;;;;;;;;;;;;;;;;;5097536;28;19924;-82
2022/03/01 02:25:31;;;;;;;;;;;;;;;;;;5097587;28;19946;-81
2022/03/01 02:27:56;;;;;;;;;;;;;;;;;;5079032;28;20374;-80
2022/03/01 02:30:22;;;;;;;;;;;;;;;;;;5077123;28;19924;-81
2022/03/01 02:32:47;;;;;;;;;;;;;;;;;;5076835;28;19971;-80
2022/03/01 02:35:12;;;;;;;;;;;;;;;;;;5077601;28;20008;-82
2022/03/01 02:37:38;;;;;;;;;;;;;;;;;;5076421;28;19924;-81
2022/03/01 02:40:05;;;;;;;;;;;;;;;;;;5088837;28;19961;-80
2022/03/01 02:42:30;;;;;;;;;;;;;;;;;;5116975;28;19920;-80
2022/03/01 02:44:57;;;;;;;;;;;;;;;;;;5117358;28;20300;-80
2022/03/01 02:47:22;;;;;;;;;;;;;;;;;;5116232;28;19915;-81
2022/03/01 02:49:48;;;;;;;;;;;;;;;;;;5120647;28;19916;-82
2022/03/01 02:52:13;;;;;;;;;;;;;;;;;;5119323;28;19919;-81
2022/03/01 02:54:38;;;;;;;;;;;;;;;;;;5118561;28;20324;-80
2022/03/01 02:57:04;;;;;;;;;;;;;;;;;;5118525;28;19920;-80
2022/03/01 02:59:30;;;;;;;;;;;;;;;;;;5120892;28;19950;-80
2022/03/01 03:01:56;;;;;;;;;;;;;;;;;;5119240;28;19949;-80
2022/03/01 03:04:21;;;;;;;;;;;;;;;;;;5101544;28;20474;-81
2022/03/01 03:06:46;;;;;;;;;;;;;;;;;;5099773;28;20296;-81
2022/03/01 03:09:12;;;;;;;;;;;;;;;;;;5099000;28;20296;-80
2022/03/01 03:11:37;;;;;;;;;;;;;;;;;;5119240;28;19915;-80
2022/03/01 03:14:02;;;;;;;;;;;;;;;;;;5119841;28;19916;-80
2022/03/01 03:16:27;;;;;;;;;;;;;;;;;;5118608;28;19922;-76
2022/03/01 03:18:53;;;;;;;;;;;;;;;;;;5120449;28;19915;-79
2022/03/01 03:21:19;;;;;;;;;;;;;;;;;;5119805;28;19973;-78
2022/03/01 03:23:45;;;;;;;;;;;;;;;;;;5120166;28;19930;-80
2022/03/01 03:26:10;;;;;;;;;;;;;;;;;;5123515;28;20002;-80
2022/03/01 03:28:36;;;;;;;;;;;;;;;;;;5124195;28;19916;-80
2022/03/01 03:31:02;;;;;;;;;;;;;;;;;;5124637;28;20289;-80
2022/03/01 03:33:27;;;;;;;;;;;;;;;;;;5123722;28;19916;-81
2022/03/01 03:35:54;;;;;;;;;;;;;;;;;;5124001;28;19915;-79
2022/03/01 03:38:19;;;;;;;;;;;;;;;;;;5123962;28;19916;-80
2022/03/01 03:40:45;;;;;;;;;;;;;;;;;;5131136;28;20395;-81
2022/03/01 03:43:10;;;;;;;;;;;;;;;;;;5129139;28;19927;-80
2022/03/01 03:45:36;;;;;;;;;;;;;;;;;;5125506;28;19945;-81
2022/03/01 03:48:01;;;;;;;;;;;;;;;;;;5108610;28;20005;-80
2022/03/01 03:50:27;;;;;;;;;;;;;;;;;;5110129;28;20438;-80
2022/03/01 03:52:53;;;;;;;;;;;;;;;;;;5106293;28;20369;-81
2022/03/01 03:55:18;;;;;;;;;;;;;;;;;;5101630;28;19962;-78
2022/03/01 03:57:43;;;;;;;;;;;;;;;;;;5096683;28;19977;-78
2022/03/01 04:00:15;;;;;;;;;;;;;;;;;;5100820;28;19922;-80
2022/03/01 04:02:41;;;;;;;;;;;;;;;;;;5100329;28;19920;-82
2022/03/01 04:05:07;;;;;;;;;;;;;;;;;;5097174;28;19961;-78
2022/03/01 04:07:32;;;;;;;;;;;;;;;;;;5096042;28;19916;-78
2022/03/01 04:09:58;;;;;;;;;;;;;;;;;;5098888;28;20280;-78
2022/03/01 04:12:23;;;;;;;;;;;;;;;;;;5116381;28;19915;-78
2022/03/01 04:14:48;;;;;;;;;;;;;;;;;;5114976;28;19923;-78
2022/03/01 04:17:14;;;;;;;;;;;;;;;;;;5116223;28;20018;-78
2022/03/01 04:19:39;;;;;;;;;;;;;;;;;;5114287;28;19951;-78
2022/03/01 04:22:04;;;;;;;;;;;;;;;;;;5116285;28;19965;-78
2022/03/01 04:24:30;;;;;;;;;;;;;;;;;;5116818;28;19937;-78
2022/03/01 04:26:55;;;;;;;;;;;;;;;;;;5095032;28;20285;-78
2022/03/01 04:29:20;;;;;;;;;;;;;;;;;;5094746;28;19916;-78
2022/03/01 04:31:45;;;;;;;;;;;;;;;;;;5078625;28;20485;-77
2022/03/01 04:34:11;;;;;;;;;;;;;;;;;;5075651;28;19997;-78
2022/03/01 04:36:36;;;;;;;;;;;;;;;;;;5075708;28;19921;-78
2022/03/01 04:39:01;;;;;;;;;;;;;;;;;;5075367;28;20397;-78
2022/03/01 04:41:27;;;;;;;;;;;;;;;;;;5075273;28;19975;-78
2022/03/01 04:43:52;;;;;;;;;;;;;;;;;;5075386;28;19925;-78
2022/03/01 04:46:18;;;;;;;;;;;;;;;;;;5074241;28;19913;-78
2022/03/01 04:48:44;;;;;;;;;;;;;;;;;;5075309;28;19916;-78
2022/03/01 04:51:09;;;;;;;;;;;;;;;;;;5075323;28;20428;-78
2022/03/01 04:53:35;;;;;;;;;;;;;;;;;;5075031;28;19921;-78
2022/03/01 04:56:01;;;;;;;;;;;;;;;;;;5075507;28;20365;-78
2022/03/01 04:58:26;;;;;;;;;;;;;;;;;;5073830;28;20007;-78
2022/03/01 05:00:54;;;;;;;;;;;;;;;;;;5075218;28;20354;-78
2022/03/01 05:03:20;;;;;;;;;;;;;;;;;;5074805;28;19973;-78
2022/03/01 05:05:46;;;;;;;;;;;;;;;;;;5073738;28;19920;-78
2022/03/01 05:08:11;;;;;;;;;;;;;;;;;;5073474;28;19917;-78
2022/03/01 05:10:36;;;;;;;;;;;;;;;;;;5073918;28;19916;-78
2022/03/01 05:13:03;;;;;;;;;;;;;;;;;;5083293;28;19924;-78
2022/03/01 05:15:29;;;;;;;;;;;;;;;;;;5093799;28;19962;-78
2022/03/01 05:17:54;;;;;;;;;;;;;;;;;;5095157;28;19950;-79
2022/03/01 05:20:20;;;;;;;;;;;;;;;;;;5094569;28;20285;-78
2022/03/01 05:22:46;;;;;;;;;;;;;;;;;;5093103;28;20449;-78
2022/03/01 05:25:12;;;;;;;;;;;;;;;;;;5094807;28;19916;-78
2022/03/01 05:27:39;;;;;;;;;;;;;;;;;;5077134;28;19920;-78
2022/03/01 05:30:05;;;;;;;;;;;;;;;;;;5074698;28;19920;-78
2022/03/01 05:32:32;;;;;;;;;;;;;;;;;;5074449;28;20485;-78
2022/03/01 05:34:58;;;;;;;;;;;;;;;;;;5074469;28;19924;-78
2022/03/01 05:37:23;;;;;;;;;;;;;;;;;;5090218;28;19920;-78
2022/03/01 05:39:48;;;;;;;;;;;;;;;;;;5074206;28;19924;-78
2022/03/01 05:42:14;;;;;;;;;;;;;;;;;;5073985;28;19924;-80
2022/03/01 05:44:39;;;;;;;;;;;;;;;;;;5074230;28;20007;-77
2022/03/01 05:47:05;;;;;;;;;;;;;;;;;;5073920;28;19962;-78
2022/03/01 05:49:30;;;;;;;;;;;;;;;;;;5073598;28;19916;-77
2022/03/01 05:51:55;;;;;;;;;;;;;;;;;;5087371;28;20406;-78
2022/03/01 05:54:20;;;;;;;;;;;;;;;;;;5093226;28;19916;-78
2022/03/01 05:56:46;;;;;;;;;;;;;;;;;;5094525;28;19958;-77
2022/03/01 05:59:11;;;;;;;;;;;;;;;;;;5093054;28;20305;-78
2022/03/01 06:01:36;;;;;;;;;;;;;;;;;;5094406;28;19916;-78
2022/03/01 06:04:02;;;;;;;;;;;;;;;;;;5093795;28;20412;-78
2022/03/01 06:06:27;;;;;;;;;;;;;;;;;;5092438;28;20346;-78
2022/03/01 06:08:52;;;;;;;;;;;;;;;;;;5094004;28;19923;-77
2022/03/01 06:11:18;;;;;;;;;;;;;;;;;;5093673;28;19916;-78
2022/03/01 06:13:43;;;;;;;;;;;;;;;;;;5094256;28;19916;-78
2022/03/01 06:16:09;;;;;;;;;;;;;;;;;;5092543;28;19969;-78
2022/03/01 06:18:34;;;;;;;;;;;;;;;;;;5109926;28;19950;-78
2022/03/01 06:20:59;;;;;;;;;;;;;;;;;;5114762;28;19919;-78
2022/03/01 06:23:25;;;;;;;;;;;;;;;;;;5116300;28;19973;-78
2022/03/01 06:25:50;;;;;;;;;;;;;;;;;;5106132;28;20396;-78
2022/03/01 06:28:16;;;;;;;;;;;;;;;;;;5093148;28;19916;-78
2022/03/01 06:30:41;;;;;;;;;;;;;;;;;;5094033;28;19920;-78
2022/03/01 06:33:06;;;;;;;;;;;;;;;;;;5093806;28;20362;-78
2022/03/01 06:35:32;;;;;;;;;;;;;;;;;;5096245;28;19927;-78
2022/03/01 06:37:57;;;;;;;;;;;;;;;;;;5095300;28;19920;-80
2022/03/01 06:40:23;;;;;;;;;;;;;;;;;;5095701;28;19961;-78
2022/03/01 06:42:48;;;;;;;;;;;;;;;;;;5095578;28;20024;-78
2022/03/01 06:45:14;;;;;;;;;;;;;;;;;;5095180;28;19916;-77
2022/03/01 06:47:39;;;;;;;;;;;;;;;;;;5095999;28;19916;-79
2022/03/01 06:50:05;;;;;;;;;;;;;;;;;;5102521;28;19918;-78
2022/03/01 06:52:32;;;;;;;;;;;;;;;;;;5115844;28;19926;-79
2022/03/01 06:54:57;;;;;;;;;;;;;;;;;;5116501;28;19920;-78
2022/03/01 06:57:23;;;;;;;;;;;;;;;;;;5114685;28;19976;-77
2022/03/01 06:59:51;;;;;;;;;;;;;;;;;;5115605;28;20377;-80
2022/03/01 07:02:16;;;;;;;;;;;;;;;;;;5114944;28;20391;-80
2022/03/01 07:04:41;;;;;;;;;;;;;;;;;;5116552;28;19923;-78
2022/03/01 07:07:06;;;;;;;;;;;;;;;;;;5114148;28;19923;-78
2022/03/01 07:09:32;;;;;;;;;;;;;;;;;;5116291;28;20006;-80
2022/03/01 07:11:57;;;;;;;;;;;;;;;;;;5115643;28;20331;-77
2022/03/01 07:14:22;;;;;;;;;;;;;;;;;;5113583;28;19916;-77
2022/03/01 07:16:47;;;;;;;;;;;;;;;;;;5113959;28;19915;-78
2022/03/01 07:19:13;;;;;;;;;;;;;;;;;;5113819;28;20003;-77
2022/03/01 07:21:38;;;;;;;;;;;;;;;;;;5093623;28;19916;-78
2022/03/01 07:24:04;;;;;;;;;;;;;;;;;;5093406;28;19932;-78
2022/03/01 07:26:29;;;;;;;;;;;;;;;;;;5100033;28;20319;-78
2022/03/01 07:28:54;;;;;;;;;;;;;;;;;;5113612;28;19920;-79
2022/03/01 07:31:21;;;;;;;;;;;;;;;;;;5113652;28;19961;-79
2022/03/01 07:33:46;;;;;;;;;;;;;;;;;;5113827;28;20361;-77
2022/03/01 07:36:12;;;;;;;;;;;;;;;;;;5113937;28;19955;-78
2022/03/01 07:38:37;;;;;;;;;;;;;;;;;;5116308;28;19915;-78
2022/03/01 07:41:02;;;;;;;;;;;;;;;;;;5117716;28;20018;-79
2022/03/01 07:43:28;;;;;;;;;;;;;;;;;;5095512;28;19942;-79
2022/03/01 07:45:53;;;;;;;;;;;;;;;;;;5098959;28;19916;-80
2022/03/01 07:48:18;;;;;;;;;;;;;;;;;;5101449;28;19916;-81
2022/03/01 07:50:43;;;;;;;;;;;;;;;;;;5100790;28;20010;-80
2022/03/01 07:53:09;;;;;;;;;;;;;;;;;;5100232;28;20400;-80
2022/03/01 07:55:35;;;;;;;;;;;;;;;;;;5096225;28;20393;-83
2022/03/01 07:58:00;;;;;;;;;;;;;;;;;;5091884;28;19919;-81
2022/03/01 08:00:25;;;;;;;;;;;;;;;;;;5101341;28;20336;-80
2022/03/01 08:02:52;;;;;;;;;;;;;;;;;;5095277;28;19927;-81
2022/03/01 08:05:17;;;;;;;;;;;;;;;;;;5087007;28;19923;-81
2022/03/01 08:07:43;;;;;;;;;;;;;;;;;;5084461;28;19917;-81
2022/03/01 08:10:09;;;;;;;;;;;;;;;;;;5089995;28;19916;-80
2022/03/01 08:12:34;;;;;;;;;;;;;;;;;;5100924;28;19920;-80
2022/03/01 08:14:59;;;;;;;;;;;;;;;;;;5097732;28;19927;-77
2022/03/01 08:17:24;;;;;;;;;;;;;;;;;;5080376;28;19952;-82
2022/03/01 08:19:50;;;;;;;;;;;;;;;;;;5096218;28;19923;-85
2022/03/01 08:22:15;;;;;;;;;;;;;;;;;;5105145;28;19920;-82
2022/03/01 08:24:40;;;;;;;;;;;;;;;;;;5090136;28;19916;-82
2022/03/01 08:27:06;;;;;;;;;;;;;;;;;;5092120;28;19917;-85
2022/03/01 08:29:31;;;;;;;;;;;;;;;;;;5087212;28;19916;-83
2022/03/01 08:31:57;;;;;;;;;;;;;;;;;;5085137;28;19916;-83
2022/03/01 08:34:22;;;;;;;;;;;;;;;;;;5082836;28;20297;-82
2022/03/01 08:36:48;;;;;;;;;;;;;;;;;;5084302;28;19916;-82
2022/03/01 08:39:13;;;;;;;;;;;;;;;;;;5086630;28;19916;-82
2022/03/01 08:41:38;;;;;;;;;;;;;;;;;;5102569;28;20003;-83
2022/03/01 08:44:04;;;;;;;;;;;;;;;;;;5110527;28;20393;-84
2022/03/01 08:46:29;;;;;;;;;;;;;;;;;;5084170;28;19916;-84
2022/03/01 08:48:55;;;;;;;;;;;;;;;;;;5079217;28;20403;-84
2022/03/01 08:51:21;;;;;;;;;;;;;;;;;;5081157;28;19971;-84
2022/03/01 08:53:47;;;;;;;;;;;;;;;;;;5080741;28;19921;-86
2022/03/01 08:56:15;;;;;;;;;;;;;;;;;;5081532;28;19924;-86
2022/03/01 08:58:42;;;;;;;;;;;;;;;;;;5081958;28;20003;-86
2022/03/01 09:01:07;;;;;;;;;;;;;;;;;;5081382;28;19923;-84
2022/03/01 09:03:33;;;;;;;;;;;;;;;;;;5082288;28;20018;-85
2022/03/01 09:05:58;;;;;;;;;;;;;;;;;;5081995;28;19923;-85
2022/03/01 09:08:24;;;;;;;;;;;;;;;;;;5087894;28;19921;-85
2022/03/01 09:10:49;;;;;;;;;;;;;;;;;;5099937;28;19945;-88
2022/03/01 09:13:14;;;;;;;;;;;;;;;;;;5100886;28;19942;-87
2022/03/01 09:15:40;;;;;;;;;;;;;;;;;;5111123;28;19966;-85
2022/03/01 09:18:05;;;;;;;;;;;;;;;;;;5121355;28;19915;-85
2022/03/01 09:20:31;;;;;;;;;;;;;;;;;;5121015;28;19915;-85
2022/03/01 09:22:57;;;;;;;;;;;;;;;;;;5120349;28;20022;-85
2022/03/01 09:25:23;;;;;;;;;;;;;;;;;;5120662;28;19915;-85
2022/03/01 09:27:48;;;;;;;;;;;;;;;;;;5097712;28;19916;-81
2022/03/01 09:30:13;;;;;;;;;;;;;;;;;;5097388;28;19973;-81
2022/03/01 09:32:40;;;;;;;;;;;;;;;;;;5098202;28;19912;-79
2022/03/01 09:35:06;;;;;;;;;;;;;;;;;;5097964;28;19916;-80
2022/03/01 09:37:32;;;;;;;;;;;;;;;;;;5079571;28;19922;-79
2022/03/01 09:40:01;;;;;;;;;;;;;;;;;;5098279;28;19918;-79
2022/03/01 09:42:27;;;;;;;;;;;;;;;;;;5097197;28;19958;-79
2022/03/01 09:44:53;;;;;;;;;;;;;;;;;;5091338;28;20270;-81
2022/03/01 09:47:19;;;;;;;;;;;;;;;;;;5089378;28;19923;-80
2022/03/01 09:49:44;;;;;;;;;;;;;;;;;;5097496;28;19920;-79
2022/03/01 09:52:10;;;;;;;;;;;;;;;;;;5097566;28;19923;-79
2022/03/01 09:54:35;;;;;;;;;;;;;;;;;;5097587;28;19919;-79
2022/03/01 09:57:01;;;;;;;;;;;;;;;;;;5097790;28;19969;-80
2022/03/01 09:59:28;;;;;;;;;;;;;;;;;;5084964;28;21293;-79
2022/03/01 10:01:54;;;;;;;;;;;;;;;;;;5076872;28;20408;-80
2022/03/01 10:04:19;;;;;;;;;;;;;;;;;;5077251;28;19966;-79
2022/03/01 10:06:46;;;;;;;;;;;;;;;;;;5076628;28;19916;-79
2022/03/01 10:09:17;;;;;;;;;;;;;;;;;;5078899;28;19923;-80
2022/03/01 10:11:42;;;;;;;;;;;;;;;;;;5095536;28;20374;-80
2022/03/01 10:14:09;;;;;;;;;;;;;;;;;;5097118;28;19916;-79
2022/03/01 10:16:41;;;;;;;;;;;;;;;;;;5103309;28;19923;-82
2022/03/01 10:19:17;;;;;;;;;;;;;;;;;;5096320;28;19977;-81
2022/03/01 10:21:45;;;;;;;;;;;;;;;;;;5096696;28;20388;-82
2022/03/01 10:24:10;;;;;;;;;;;;;;;;;;5101258;28;19920;-85
2022/03/01 10:26:37;;;;;;;;;;;;;;;;;;5104038;28;19923;-84
2022/03/01 10:29:03;;;;;;;;;;;;;;;;;;5104896;28;19965;-84
2022/03/01 10:31:30;;;;;;;;;;;;;;;;;;5105551;28;19916;-82
2022/03/01 10:34:00;;;;;;;;;;;;;;;;;;5105517;28;19916;-83
2022/03/01 10:36:29;;;;;;;;;;;;;;;;;;5097618;28;19975;-84
2022/03/01 10:38:56;;;;;;;;;;;;;;;;;;5092398;28;19959;-84
2022/03/01 10:41:25;;;;;;;;;;;;;;;;;;5099461;28;19912;-83
2022/03/01 10:43:53;;;;;;;;;;;;;;;;;;5103429;28;19926;-83
2022/03/01 10:46:18;;;;;;;;;;;;;;;;;;5104667;28;19963;-83
2022/03/01 10:48:43;;;;;;;;;;;;;;;;;;5117506;28;19923;-83
2022/03/01 10:51:09;;;;;;;;;;;;;;;;;;5122052;28;19915;-83
2022/03/01 10:53:38;;;;;;;;;;;;;;;;;;5123322;28;20285;-83
2022/03/01 10:56:05;;;;;;;;;;;;;;;;;;5120161;28;19968;-83
2022/03/01 10:58:30;;;;;;;;;;;;;;;;;;5123124;28;20339;-83
2022/03/01 11:00:56;;;;;;;;;;;;;;;;;;5124501;28;19920;-83
2022/03/01 11:03:22;;;;;;;;;;;;;;;;;;5125910;28;19927;-83
2022/03/01 11:05:47;;;;;;;;;;;;;;;;;;5120622;28;20402;-86
2022/03/01 11:08:14;;;;;;;;;;;;;;;;;;5121222;28;20337;-78
2022/03/01 11:10:40;;;;;;;;;;;;;;;;;;5118804;28;19923;-79
2022/03/01 11:13:06;;;;;;;;;;;;;;;;;;5119152;28;19954;-79
2022/03/01 11:15:34;;;;;;;;;;;;;;;;;;5097522;28;19941;-79
2022/03/01 11:18:07;;;;;;;;;;;;;;;;;;5096568;28;20310;-79
2022/03/01 11:20:35;;;;;;;;;;;;;;;;;;5120291;28;19915;-78
2022/03/01 11:23:07;;;;;;;;;;;;;;;;;;5120899;28;20018;-84
2022/03/01 11:25:37;;;;;;;;;;;;;;;;;;5121245;28;20309;-81
2022/03/01 11:28:05;;;;;;;;;;;;;;;;;;5122840;28;20377;-79
2022/03/01 11:30:34;;;;;;;;;;;;;;;;;;5125053;28;19923;-78
2022/03/01 11:33:00;;;;;;;;;;;;;;;;;;5122302;28;19924;-80
2022/03/01 11:35:26;;;;;;;;;;;;;;;;;;5125144;28;19920;-80
2022/03/01 11:37:58;;;;;;;;;;;;;;;;;;5123321;28;20018;-82
2022/03/01 11:40:23;;;;;;;;;;;;;;;;;;5121892;28;19945;-85
2022/03/01 11:42:49;;;;;;;;;;;;;;;;;;5100245;28;19934;-79
2022/03/01 11:45:15;;;;;;;;;;;;;;;;;;5077964;28;20011;-79
2022/03/01 11:47:41;;;;;;;;;;;;;;;;;;5076828;28;19959;-78
2022/03/01 11:50:09;;;;;;;;;;;;;;;;;;5076939;28;20472;-78
2022/03/01 11:52:47;;;;;;;;;;;;;;;;;;5076339;28;19931;-78
2022/03/01 11:55:12;;;;;;;;;;;;;;;;;;5077958;28;19970;-78
2022/03/01 11:57:38;;;;;;;;;;;;;;;;;;5078327;28;20348;-77
2022/03/01 12:00:03;;;;;;;;;;;;;;;;;;5092079;28;19920;-79
2022/03/01 12:02:32;;;;;;;;;;;;;;;;;;5096335;28;19924;-78
2022/03/01 12:04:59;;;;;;;;;;;;;;;;;;5098000;28;19916;-83
2022/03/01 12:07:26;;;;;;;;;;;;;;;;;;5102925;28;19920;-85
2022/03/01 12:10:09;;;;;;;;;;;;;;;;;;5104826;28;19916;-84
2022/03/01 12:12:36;;;;;;;;;;;;;;;;;;5083120;28;19966;-79
2022/03/01 12:15:02;;;;;;;;;;;;;;;;;;5114696;28;19922;-83
2022/03/01 12:17:38;;;;;;;;;;;;;;;;;;5103802;28;19923;-83
2022/03/01 12:20:07;;;;;;;;;;;;;;;;;;5121173;28;20412;-81
2022/03/01 12:22:33;;;;;;;;;;;;;;;;;;5087948;28;19927;-81
2022/03/01 12:24:58;;;;;;;;;;;;;;;;;;5081323;28;19916;-81
2022/03/01 12:27:28;;;;;;;;;;;;;;;;;;5083191;28;20328;-82
2022/03/01 12:29:54;;;;;;;;;;;;;;;;;;5084192;28;19985;-81
2022/03/01 12:32:21;;;;;;;;;;;;;;;;;;5101426;28;19946;-81
2022/03/01 12:34:47;;;;;;;;;;;;;;;;;;5102606;28;19928;-81
2022/03/01 12:37:18;;;;;;;;;;;;;;;;;;5103038;28;20133;-82
2022/03/01 12:39:43;;;;;;;;;;;;;;;;;;5102965;28;19968;-82
2022/03/01 12:42:09;;;;;;;;;;;;;;;;;;5100434;28;20011;-82
2022/03/01 12:44:34;;;;;;;;;;;;;;;;;;5094674;28;20002;-82
2022/03/01 12:47:00;;;;;;;;;;;;;;;;;;5082882;28;19927;-82
2022/03/01 12:49:26;;;;;;;;;;;;;;;;;;5066504;28;19968;-82
2022/03/01 12:51:54;;;;;;;;;;;;;;;;;;5065969;28;19966;-82
2022/03/01 12:54:20;;;;;;;;;;;;;;;;;;5083834;28;19946;-82
2022/03/01 12:56:47;;;;;;;;;;;;;;;;;;5084314;28;19924;-82
2022/03/01 12:59:19;;;;;;;;;;;;;;;;;;5082357;28;19916;-82
2022/03/01 13:01:52;;;;;;;;;;;;;;;;;;5064753;28;19920;-81
2022/03/01 13:04:21;;;;;;;;;;;;;;;;;;5083752;28;19952;-81
2022/03/01 13:06:47;;;;;;;;;;;;;;;;;;5066997;28;19939;-81
2022/03/01 13:09:12;;;;;;;;;;;;;;;;;;5084787;28;20358;-81
2022/03/01 13:11:38;;;;;;;;;;;;;;;;;;5084805;28;19923;-82
2022/03/01 13:14:04;;;;;;;;;;;;;;;;;;5084162;28;19938;-82
2022/03/01 13:16:31;;;;;;;;;;;;;;;;;;5067339;28;19969;-82
2022/03/01 13:19:04;;;;;;;;;;;;;;;;;;5084262;28;19916;-82
2022/03/01 13:21:34;;;;;;;;;;;;;;;;;;5082646;28;19916;-81
2022/03/01 13:24:00;;;;;;;;;;;;;;;;;;5099326;28;19920;-82
2022/03/01 13:26:26;;;;;;;;;;;;;;;;;;5104300;28;20304;-82
2022/03/01 13:28:52;;;;;;;;;;;;;;;;;;5083480;28;19922;-82
2022/03/01 13:31:27;;;;;;;;;;;;;;;;;;5082885;28;19959;-82
2022/03/01 13:33:54;;;;;;;;;;;;;;;;;;5080775;28;19943;-82
2022/03/01 13:36:19;;;;;;;;;;;;;;;;;;5081138;28;19969;-81
2022/03/01 13:38:54;;;;;;;;;;;;;;;;;;5081338;28;19928;-82
2022/03/01 13:41:23;;;;;;;;;;;;;;;;;;5081736;28;20002;-82
2022/03/01 13:43:49;;;;;;;;;;;;;;;;;;5065248;28;19955;-82
2022/03/01 13:46:15;;;;;;;;;;;;;;;;;;5083112;28;19921;-80
2022/03/01 13:48:41;;;;;;;;;;;;;;;;;;5082595;28;19916;-85
2022/03/01 13:51:07;;;;;;;;;;;;;;;;;;5084216;28;20007;-84
2022/03/01 13:53:33;;;;;;;;;;;;;;;;;;5099373;28;19921;-85
2022/03/01 13:55:58;;;;;;;;;;;;;;;;;;5100036;28;19916;-83
2022/03/01 13:58:24;;;;;;;;;;;;;;;;;;5094014;28;20294;-86
2022/03/01 14:00:51;;;;;;;;;;;;;;;;;;5066537;28;19947;-80
2022/03/01 14:03:27;;;;;;;;;;;;;;;;;;5084090;28;19920;-85
2022/03/01 14:06:03;;;;;;;;;;;;;;;;;;5067650;28;19916;-85
2022/03/01 14:08:29;;;;;;;;;;;;;;;;;;5084570;28;20428;-85
2022/03/01 14:10:56;;;;;;;;;;;;;;;;;;5082421;28;19921;-85
2022/03/01 14:13:31;;;;;;;;;;;;;;;;;;5080506;28;19916;-85
2022/03/01 14:16:04;;;;;;;;;;;;;;;;;;5103263;28;19916;-85
2022/03/01 14:18:40;;;;;;;;;;;;;;;;;;5086815;28;19930;-85
2022/03/01 14:21:06;;;;;;;;;;;;;;;;;;5085613;28;19942;-84
2022/03/01 14:23:32;;;;;;;;;;;;;;;;;;5102191;28;19989;-85
2022/03/01 14:25:58;;;;;;;;;;;;;;;;;;5102880;28;20393;-85
2022/03/01 14:28:24;;;;;;;;;;;;;;;;;;5101918;28;19923;-85
2022/03/01 14:30:49;;;;;;;;;;;;;;;;;;5103698;28;19962;-84
2022/03/01 14:33:14;;;;;;;;;;;;;;;;;;5101647;28;19966;-84
2022/03/01 14:35:40;;;;;;;;;;;;;;;;;;5104823;28;20022;-84
2022/03/01 14:38:07;;;;;;;;;;;;;;;;;;5103685;28;20358;-85
2022/03/01 14:40:32;;;;;;;;;;;;;;;;;;5082442;28;19962;-84
2022/03/01 14:42:58;;;;;;;;;;;;;;;;;;5094875;28;20370;-85
2022/03/01 14:45:23;;;;;;;;;;;;;;;;;;5084172;28;19923;-84
2022/03/01 14:47:49;;;;;;;;;;;;;;;;;;5104255;28;19916;-84
2022/03/01 14:50:15;;;;;;;;;;;;;;;;;;5104430;28;19934;-85
2022/03/01 14:52:40;;;;;;;;;;;;;;;;;;5093436;28;19921;-85
2022/03/01 14:55:05;;;;;;;;;;;;;;;;;;5086783;28;19959;-85
2022/03/01 14:57:31;;;;;;;;;;;;;;;;;;5088333;28;19904;-85
2022/03/01 14:59:56;;;;;;;;;;;;;;;;;;5099539;28;19951;-86
2022/03/01 15:02:22;;;;;;;;;;;;;;;;;;5094980;28;20015;-85
2022/03/01 15:04:50;;;;;;;;;;;;;;;;;;5092345;28;20377;-86
2022/03/01 15:07:16;;;;;;;;;;;;;;;;;;5092883;28;19916;-85
2022/03/01 15:09:41;;;;;;;;;;;;;;;;;;5095124;28;20003;-86
2022/03/01 15:12:07;;;;;;;;;;;;;;;;;;5104516;28;19922;-85
2022/03/01 15:14:32;;;;;;;;;;;;;;;;;;5098774;28;19924;-86
2022/03/01 15:16:57;;;;;;;;;;;;;;;;;;5115395;28;19925;-86
2022/03/01 15:19:23;;;;;;;;;;;;;;;;;;5096051;28;19923;-85
2022/03/01 15:21:48;;;;;;;;;;;;;;;;;;5113973;28;19916;-86
2022/03/01 15:24:15;;;;;;;;;;;;;;;;;;5090979;28;19943;-86
2022/03/01 15:26:40;;;;;;;;;;;;;;;;;;5093439;28;19917;-85
2022/03/01 15:29:06;;;;;;;;;;;;;;;;;;5095938;28;19937;-85
2022/03/01 15:31:31;;;;;;;;;;;;;;;;;;5101059;28;19916;-85
2022/03/01 15:33:57;;;;;;;;;;;;;;;;;;5110671;28;19919;-85
2022/03/01 15:36:22;;;;;;;;;;;;;;;;;;5109777;28;20335;-85
2022/03/01 15:38:47;;;;;;;;;;;;;;;;;;5109757;28;19920;-85
2022/03/01 15:41:13;;;;;;;;;;;;;;;;;;5110202;28;19922;-85
2022/03/01 15:43:38;;;;;;;;;;;;;;;;;;5092607;28;20007;-84
2022/03/01 15:46:04;;;;;;;;;;;;;;;;;;5088419;28;19924;-85
2022/03/01 15:48:29;;;;;;;;;;;;;;;;;;5088701;28;19916;-85
2022/03/01 15:50:55;;;;;;;;;;;;;;;;;;5088722;28;19920;-85
2022/03/01 15:53:20;;;;;;;;;;;;;;;;;;5088562;28;19928;-85
2022/03/01 15:55:47;;;;;;;;;;;;;;;;;;5086771;28;19917;-85
2022/03/01 15:58:13;;;;;;;;;;;;;;;;;;5086060;28;19939;-78
2022/03/01 16:00:41;;;;;;;;;;;;;;;;;;5094734;28;19916;-80
2022/03/01 16:03:08;;;;;;;;;;;;;;;;;;5083358;28;19931;-78
2022/03/01 16:05:33;;;;;;;;;;;;;;;;;;5086645;28;19916;-78
2022/03/01 16:07:58;;;;;;;;;;;;;;;;;;5093829;28;19931;-78
2022/03/01 16:10:24;;;;;;;;;;;;;;;;;;5102755;28;19916;-78
2022/03/01 16:12:50;;;;;;;;;;;;;;;;;;5116939;28;19915;-78
2022/03/01 16:15:15;;;;;;;;;;;;;;;;;;5101991;28;19923;-78
2022/03/01 16:17:41;;;;;;;;;;;;;;;;;;5087975;28;19923;-78
2022/03/01 16:20:07;;;;;;;;;;;;;;;;;;5089181;28;19923;-78
2022/03/01 16:22:33;;;;;;;;;;;;;;;;;;5098938;28;19920;-78
2022/03/01 16:24:58;;;;;;;;;;;;;;;;;;5098942;28;19955;-78
2022/03/01 16:27:24;;;;;;;;;;;;;;;;;;5086867;28;19916;-77
2022/03/01 16:29:49;;;;;;;;;;;;;;;;;;5080150;28;19964;-78
2022/03/01 16:32:14;;;;;;;;;;;;;;;;;;5077490;28;19939;-78
2022/03/01 16:34:40;;;;;;;;;;;;;;;;;;5078647;28;20641;-78
2022/03/01 16:37:05;;;;;;;;;;;;;;;;;;5079627;28;19916;-78
2022/03/01 16:39:30;;;;;;;;;;;;;;;;;;5100734;28;19923;-79
2022/03/01 16:41:56;;;;;;;;;;;;;;;;;;5083623;28;20293;-78